Flugplatz Mannheim-City

Bericht für EDFM

vom 25.10. um 16:20 UTC

variable Windrichtung mit 1 kt

Sichtweite 10 km oder mehr

gute Sicht, keine Wolken < 5000 ft, keine CB, keine Wettererscheinungen (CAVOK)

Temperatur 13.0°C

Taupunkt 7.0°C

Luftfeuchtigkeit 67%

Luftdruck 1019 hPa

EDFM 251620Z VRB01KT CAVOK 13/07 Q1019

Prognose für EDFM

vom 25.10. um 14:00 UTC

Zwischen 15:00 UTC und 21:00 UTC

Wind 4 kt aus 160°

Sichtweite 10 km oder mehr

keine signifikanten Wettererscheinungen

keine Wolken

TAF EDFM 251400Z 2515/2521 16004KT CAVOK
Impressum